Time;durP1;ratioP1;P1;durP2;ratioP2;P2;SDS_P1;SDS_P2;PMS_P1;PMS_P2;Temp;Humidity;BMP_temperature;BMP_pressure;BME280_temperature;BME280_humidity;BME280_pressure;Samples;Min_cycle;Max_cycle;Signal;HPM_P1;HPM_P2
2021/11/17 02:26:28;;;;;;;;;11.25;8.00;;;;;;;;7291572;19;149387;-72
2021/11/17 02:29:09;;;;;;;;;10.75;9.50;;;;;;;;7292680;19;149022;-72
2021/11/17 02:31:40;;;;;;;;;7.25;7.00;;;;;;;;7292569;19;149428;-72
2021/11/17 02:34:24;;;;;;;;;10.00;8.00;;;;;;;;7290191;19;149730;-72
2021/11/17 02:37:04;;;;;;;;;15.00;10.00;;;;;;;;7292027;19;148961;-72
2021/11/17 02:39:49;;;;;;;;;7.50;6.00;;;;;;;;7296426;19;149573;-72
2021/11/17 02:42:14;;;;;;;;;9.50;7.75;;;;;;;;7292266;19;149170;-73
2021/11/17 02:44:39;;;;;;;;;8.00;8.00;;;;;;;;7292401;19;149754;-71
2021/11/17 02:47:19;;;;;;;;;9.50;7.75;;;;;;;;7290531;19;149314;-72
2021/11/17 02:49:57;;;;;;;;;10.00;8.25;;;;;;;;7292150;19;148986;-71
2021/11/17 02:52:32;;;;;;;;;11.75;8.50;;;;;;;;7291985;19;149568;-72
2021/11/17 02:55:05;;;;;;;;;12.00;10.75;;;;;;;;7290313;19;149866;-72
2021/11/17 02:57:37;;;;;;;;;14.00;7.75;;;;;;;;7291035;19;149049;-72
2021/11/17 03:00:21;;;;;;;;;7.50;7.25;;;;;;;;7289625;19;149814;-71
2021/11/17 03:02:49;;;;;;;;;8.00;8.00;;;;;;;;7297628;19;149416;-71
2021/11/17 03:05:20;;;;;;;;;12.50;8.25;;;;;;;;7291509;19;149341;-72
2021/11/17 03:07:46;;;;;;;;;8.50;5.50;;;;;;;;7289943;19;149450;-71
2021/11/17 03:10:21;;;;;;;;;8.50;6.00;;;;;;;;7291523;19;149386;-73
2021/11/17 03:12:47;;;;;;;;;8.50;8.00;;;;;;;;7291579;19;149128;-73
2021/11/17 03:15:31;;;;;;;;;7.25;7.00;;;;;;;;7288520;19;152161;-71
2021/11/17 03:17:56;;;;;;;;;8.00;5.50;;;;;;;;7290732;19;148992;-72
2021/11/17 03:20:27;;;;;;;;;7.50;7.00;;;;;;;;7290755;19;149333;-71
2021/11/17 03:22:52;;;;;;;;;7.00;5.00;;;;;;;;7290372;19;150974;-72
2021/11/17 03:25:36;;;;;;;;;9.50;7.00;;;;;;;;7298131;19;149055;-72
2021/11/17 03:28:08;;;;;;;;;7.00;6.00;;;;;;;;7287667;19;152971;-73
2021/11/17 03:30:52;;;;;;;;;9.00;5.00;;;;;;;;7290884;19;149667;-73
2021/11/17 03:33:18;;;;;;;;;6.00;6.00;;;;;;;;7290344;19;149375;-72
2021/11/17 03:36:02;;;;;;;;;13.00;11.25;;;;;;;;7289439;19;150126;-71
2021/11/17 03:38:30;;;;;;;;;10.00;8.50;;;;;;;;7289653;19;148936;-72
2021/11/17 03:40:55;;;;;;;;;8.50;6.75;;;;;;;;7290031;19;149976;-72
2021/11/17 03:43:23;;;;;;;;;10.25;6.00;;;;;;;;7289194;19;150034;-72
2021/11/17 03:46:07;;;;;;;;;9.50;7.00;;;;;;;;7303012;19;149057;-71
2021/11/17 03:48:35;;;;;;;;;7.00;7.00;;;;;;;;7295880;19;150218;-72
2021/11/17 03:51:06;;;;;;;;;11.50;7.00;;;;;;;;7296952;19;149346;-72
2021/11/17 03:53:31;;;;;;;;;8.00;8.00;;;;;;;;7296707;19;151336;-72
2021/11/17 03:56:11;;;;;;;;;9.00;9.00;;;;;;;;7295776;19;149829;-72
2021/11/17 03:58:45;;;;;;;;;5.00;5.00;;;;;;;;7295423;19;149449;-72
2021/11/17 04:01:26;;;;;;;;;9.50;7.25;;;;;;;;7296086;19;149287;-73
2021/11/17 04:03:52;;;;;;;;;8.00;7.33;;;;;;;;7295986;19;150620;-73
2021/11/17 04:06:40;;;;;;;;;10.00;7.25;;;;;;;;7296377;19;148909;-72
2021/11/17 04:09:14;;;;;;;;;10.00;8.00;;;;;;;;7300882;19;149104;-72
2021/11/17 04:11:49;;;;;;;;;7.00;5.50;;;;;;;;7296634;19;149317;-72
2021/11/17 04:14:26;;;;;;;;;8.50;7.50;;;;;;;;7296005;19;149347;-71
2021/11/17 04:17:01;;;;;;;;;9.50;7.00;;;;;;;;7293226;19;153033;-72
2021/11/17 04:19:48;;;;;;;;;7.00;7.00;;;;;;;;7294372;19;149065;-72
2021/11/17 04:22:13;;;;;;;;;12.00;5.50;;;;;;;;7296169;19;149325;-72
2021/11/17 04:24:44;;;;;;;;;9.50;6.50;;;;;;;;7293067;19;152796;-72
2021/11/17 04:27:10;;;;;;;;;10.00;5.00;;;;;;;;7295781;19;149300;-72
2021/11/17 04:29:38;;;;;;;;;8.67;7.00;;;;;;;;7294506;19;151696;-72
2021/11/17 04:32:03;;;;;;;;;5.50;5.50;;;;;;;;7301838;19;149317;-72
2021/11/17 04:34:50;;;;;;;;;10.00;7.00;;;;;;;;7295493;19;149621;-72
2021/11/17 04:37:34;;;;;;;;;9.00;7.25;;;;;;;;7292904;19;149993;-72
2021/11/17 04:40:18;;;;;;;;;6.50;6.50;;;;;;;;7293526;19;148925;-72
2021/11/17 04:42:43;;;;;;;;;7.00;7.00;;;;;;;;7295358;19;149559;-72
2021/11/17 04:45:11;;;;;;;;;10.75;8.00;;;;;;;;7294486;19;150826;-73
2021/11/17 04:47:46;;;;;;;;;11.75;7.75;;;;;;;;7295713;19;149107;-72
2021/11/17 04:50:23;;;;;;;;;14.75;7.25;;;;;;;;7295720;19;149330;-72
2021/11/17 04:52:51;;;;;;;;;7.25;5.50;;;;;;;;7294543;19;150706;-72
2021/11/17 04:55:26;;;;;;;;;10.75;7.25;;;;;;;;7303110;19;149482;-72
2021/11/17 04:57:51;;;;;;;;;8.50;8.50;;;;;;;;7293583;19;150654;-74
2021/11/17 05:00:29;;;;;;;;;11.25;10.00;;;;;;;;7293191;19;149185;-73
2021/11/17 05:02:54;;;;;;;;;13.00;10.00;;;;;;;;7293357;19;149641;-72
2021/11/17 05:05:26;;;;;;;;;10.00;9.50;;;;;;;;7293946;19;149826;-71
2021/11/17 05:08:09;;;;;;;;;12.67;9.33;;;;;;;;7294776;19;149181;-72
2021/11/17 05:11:10;;;;;;;;;10.00;9.33;;;;;;;;7294874;19;149530;-71
2021/11/17 05:13:35;;;;;;;;;7.00;7.00;;;;;;;;7289331;19;151463;-72
2021/11/17 05:16:13;;;;;;;;;13.00;7.67;;;;;;;;7293856;19;149077;-73
2021/11/17 05:18:44;;;;;;;;;10.33;10.00;;;;;;;;7299922;19;149387;-72
2021/11/17 05:21:12;;;;;;;;;5.00;5.00;;;;;;;;7294636;19;149108;-71
2021/11/17 05:23:43;;;;;;;;;13.00;11.67;;;;;;;;7294047;19;148916;-72
2021/11/17 05:26:25;;;;;;;;;7.00;7.00;;;;;;;;7293162;19;151779;-72
2021/11/17 05:28:57;;;;;;;;;14.00;13.00;;;;;;;;7293990;19;149219;-72
2021/11/17 05:31:22;;;;;;;;;10.67;10.00;;;;;;;;7294098;19;149924;-72
2021/11/17 05:34:12;;;;;;;;;6.50;6.50;;;;;;;;7292659;19;149565;-72
2021/11/17 05:36:44;;;;;;;;;9.33;7.33;;;;;;;;7294080;19;149327;-72
2021/11/17 05:39:38;;;;;;;;;7.00;7.00;;;;;;;;7293014;19;149099;-72
2021/11/17 05:42:07;;;;;;;;;11.67;10.67;;;;;;;;7299061;19;150171;-72
2021/11/17 05:44:51;;;;;;;;;5.00;5.00;;;;;;;;7293493;19;150957;-72
2021/11/17 05:47:22;;;;;;;;;13.00;7.00;;;;;;;;7292545;19;149549;-71
2021/11/17 05:50:04;;;;;;;;;8.00;8.00;;;;;;;;7293500;19;149769;-72
2021/11/17 05:52:36;;;;;;;;;6.33;6.33;;;;;;;;7292404;19;149711;-73
2021/11/17 05:55:14;;;;;;;;;11.00;8.00;;;;;;;;7292425;19;151342;-71
2021/11/17 05:57:42;;;;;;;;;8.00;8.00;;;;;;;;7292868;19;149100;-71
2021/11/17 06:00:26;;;;;;;;;9.00;7.00;;;;;;;;7290897;19;149424;-70
2021/11/17 06:03:00;;;;;;;;;8.00;8.00;;;;;;;;7299536;19;150019;-71
2021/11/17 06:05:25;;;;;;;;;9.50;7.75;;;;;;;;7293254;19;151210;-72
2021/11/17 06:07:50;;;;;;;;;9.33;9.33;;;;;;;;7290239;19;150337;-71
2021/11/17 06:10:31;;;;;;;;;14.00;8.00;;;;;;;;7293067;19;148912;-71
2021/11/17 06:12:57;;;;;;;;;14.00;10.00;;;;;;;;7292026;19;150157;-72
2021/11/17 06:15:22;;;;;;;;;14.67;13.33;;;;;;;;7292250;19;150152;-73
2021/11/17 06:17:49;;;;;;;;;15.00;11.00;;;;;;;;7292779;19;149169;-73
2021/11/17 06:20:17;;;;;;;;;14.33;10.33;;;;;;;;7290202;19;150342;-73
2021/11/17 06:22:44;;;;;;;;;11.00;11.00;;;;;;;;7292239;19;150354;-79
2021/11/17 06:25:10;;;;;;;;;16.00;13.67;;;;;;;;7299858;19;149168;-73
2021/11/17 06:27:38;;;;;;;;;18.33;16.67;;;;;;;;7291444;19;150290;-75
2021/11/17 06:30:04;;;;;;;;;16.67;10.67;;;;;;;;7292761;19;149368;-74
2021/11/17 06:32:30;;;;;;;;;10.33;5.67;;;;;;;;7289982;19;151459;-73
2021/11/17 06:34:57;;;;;;;;;14.00;10.67;;;;;;;;7287639;19;152483;-74
2021/11/17 06:37:24;;;;;;;;;10.00;10.00;;;;;;;;7290909;19;149056;-72
2021/11/17 06:39:51;;;;;;;;;10.00;10.00;;;;;;;;7288653;19;150762;-73
2021/11/17 06:42:22;;;;;;;;;16.33;9.33;;;;;;;;7291067;19;149787;-74
2021/11/17 06:44:48;;;;;;;;;13.00;10.00;;;;;;;;7291861;19;150429;-74
2021/11/17 06:47:14;;;;;;;;;14.00;13.00;;;;;;;;7296086;19;153161;-74
2021/11/17 06:49:39;;;;;;;;;11.00;10.33;;;;;;;;7291623;19;149930;-72
2021/11/17 06:52:05;;;;;;;;;10.33;9.33;;;;;;;;7291630;19;149373;-76
2021/11/17 06:54:30;;;;;;;;;11.00;8.67;;;;;;;;7290593;19;149675;-76
2021/11/17 06:56:56;;;;;;;;;13.00;11.67;;;;;;;;7290882;19;149126;-78
2021/11/17 06:59:21;;;;;;;;;11.00;10.67;;;;;;;;7289843;19;149864;-79
2021/11/17 07:01:46;;;;;;;;;18.67;11.00;;;;;;;;7286880;19;149515;-82
2021/11/17 07:04:12;;;;;;;;;17.33;13.00;;;;;;;;7289554;19;150069;-76
2021/11/17 07:06:37;;;;;;;;;16.67;14.00;;;;;;;;7289879;19;151097;-80
2021/11/17 07:09:03;;;;;;;;;18.67;14.00;;;;;;;;7296713;19;149741;-75
2021/11/17 07:11:30;;;;;;;;;16.00;13.33;;;;;;;;7289935;19;150733;-73
2021/11/17 07:13:55;;;;;;;;;15.67;15.33;;;;;;;;7287182;19;149335;-75
2021/11/17 07:16:21;;;;;;;;;19.33;15.00;;;;;;;;7285589;19;149318;-80
2021/11/17 07:18:46;;;;;;;;;12.33;12.33;;;;;;;;7290406;19;150614;-84
2021/11/17 07:21:11;;;;;;;;;17.00;14.00;;;;;;;;7297159;19;150534;-82
2021/11/17 07:23:37;;;;;;;;;18.67;14.67;;;;;;;;7296133;19;149442;-80
2021/11/17 07:26:03;;;;;;;;;14.50;13.75;;;;;;;;7296245;19;149527;-78
2021/11/17 07:28:28;;;;;;;;;11.25;10.25;;;;;;;;7296615;19;151323;-75
2021/11/17 07:30:54;;;;;;;;;15.25;14.50;;;;;;;;7307140;19;149537;-76
2021/11/17 07:33:19;;;;;;;;;18.00;15.67;;;;;;;;7295666;19;150634;-77
2021/11/17 07:35:46;;;;;;;;;22.67;21.00;;;;;;;;7297358;19;149370;-78
2021/11/17 07:38:13;;;;;;;;;13.00;13.00;;;;;;;;7297218;19;149815;-75
2021/11/17 07:40:40;;;;;;;;;14.25;11.25;;;;;;;;7294394;19;152373;-80
2021/11/17 07:43:09;;;;;;;;;12.75;12.00;;;;;;;;7297451;19;148988;-79
2021/11/17 07:45:35;;;;;;;;;15.50;15.00;;;;;;;;7297147;19;151141;-79
2021/11/17 07:48:00;;;;;;;;;15.25;13.50;;;;;;;;7295806;19;149844;-78
2021/11/17 07:50:25;;;;;;;;;19.75;18.00;;;;;;;;7297081;19;149578;-78
2021/11/17 07:52:51;;;;;;;;;22.25;19.25;;;;;;;;7303336;19;149330;-77
2021/11/17 07:55:17;;;;;;;;;11.75;8.50;;;;;;;;7296536;19;149235;-77
2021/11/17 07:57:43;;;;;;;;;14.50;11.25;;;;;;;;7295970;19;149522;-80
2021/11/17 08:00:19;;;;;;;;;19.50;15.25;;;;;;;;7293984;19;150096;-77
2021/11/17 08:02:45;;;;;;;;;15.75;12.00;;;;;;;;7295614;19;149702;-76
2021/11/17 08:05:12;;;;;;;;;14.25;14.25;;;;;;;;7296443;19;149306;-80
2021/11/17 08:07:38;;;;;;;;;14.75;14.00;;;;;;;;7295655;19;149888;-77
2021/11/17 08:10:06;;;;;;;;;21.33;16.33;;;;;;;;7295839;19;148935;-77
2021/11/17 08:12:31;;;;;;;;;27.00;21.00;;;;;;;;7302724;19;149355;-76
2021/11/17 08:14:57;;;;;;;;;19.67;19.67;;;;;;;;7295833;19;149800;-77
2021/11/17 08:17:22;;;;;;;;;22.67;19.00;;;;;;;;7296811;19;150612;-82
2021/11/17 08:19:48;;;;;;;;;26.00;23.00;;;;;;;;7292900;19;149722;-79
2021/11/17 08:22:15;;;;;;;;;22.00;20.33;;;;;;;;7295346;19;149474;-78
2021/11/17 08:24:40;;;;;;;;;17.00;17.00;;;;;;;;7295717;19;150494;-79
2021/11/17 08:27:12;;;;;;;;;15.67;14.67;;;;;;;;7293983;19;150609;-74
2021/11/17 08:29:37;;;;;;;;;16.33;13.67;;;;;;;;7295931;19;149314;-71
2021/11/17 08:32:03;;;;;;;;;14.00;13.00;;;;;;;;7295918;19;149074;-72
2021/11/17 08:34:30;;;;;;;;;10.50;9.00;;;;;;;;7301059;19;150987;-73
2021/11/17 08:36:55;;;;;;;;;18.00;13.33;;;;;;;;7296815;19;150440;-71
2021/11/17 08:39:21;;;;;;;;;12.50;8.75;;;;;;;;7295280;19;149906;-72
2021/11/17 08:41:46;;;;;;;;;5.00;5.00;;;;;;;;7296653;19;149132;-71
2021/11/17 08:44:12;;;;;;;;;6.50;5.25;;;;;;;;7296995;19;149887;-72
2021/11/17 08:46:37;;;;;;;;;8.00;5.00;;;;;;;;7295654;19;149719;-72
2021/11/17 08:49:03;;;;;;;;;6.00;5.00;;;;;;;;7296197;19;149180;-72
2021/11/17 08:51:30;;;;;;;;;10.00;6.00;;;;;;;;7294379;19;151821;-72
2021/11/17 08:53:56;;;;;;;;;8.00;8.00;;;;;;;;7295391;19;149347;-73
2021/11/17 08:56:21;;;;;;;;;6.50;5.50;;;;;;;;7303755;19;149808;-72
2021/11/17 08:58:46;;;;;;;;;11.00;9.00;;;;;;;;7295291;19;150780;-72
2021/11/17 09:01:12;;;;;;;;;9.00;9.00;;;;;;;;7296883;19;148985;-73
2021/11/17 09:03:37;;;;;;;;;14.75;10.00;;;;;;;;7295716;19;150440;-73
2021/11/17 09:06:04;;;;;;;;;11.00;10.00;;;;;;;;7292897;19;150572;-73
2021/11/17 09:08:30;;;;;;;;;12.00;9.00;;;;;;;;7293909;19;149074;-76
2021/11/17 09:10:57;;;;;;;;;9.50;8.50;;;;;;;;7294462;19;150823;-77
2021/11/17 09:13:22;;;;;;;;;11.00;11.00;;;;;;;;7293210;19;149721;-76
2021/11/17 09:15:49;;;;;;;;;12.00;8.00;;;;;;;;7294591;19;149628;-75
2021/11/17 09:18:15;;;;;;;;;9.25;9.00;;;;;;;;7299469;19;151582;-74
2021/11/17 09:20:40;;;;;;;;;12.50;10.50;;;;;;;;7291515;19;149304;-73
2021/11/17 09:23:07;;;;;;;;;10.75;3.25;;;;;;;;7292701;19;151770;-72
2021/11/17 09:25:33;;;;;;;;;13.50;9.50;;;;;;;;7292891;19;151240;-74
2021/11/17 09:27:58;;;;;;;;;13.00;13.00;;;;;;;;7294233;19;149299;-74
2021/11/17 09:30:25;;;;;;;;;8.00;8.00;;;;;;;;7293135;19;150750;-74
2021/11/17 09:32:53;;;;;;;;;9.67;9.67;;;;;;;;7293319;19;149969;-73
2021/11/17 09:35:18;;;;;;;;;;;;;;;;;;7298059;19;150008;-72
2021/11/17 09:37:43;;;;;;;;;;;;;;;;;;7297747;19;152075;-73
2021/11/17 09:40:08;;;;;;;;;;;;;;;;;;7302328;19;149603;-72
2021/11/17 09:42:33;;;;;;;;;;;;;;;;;;7295956;19;149533;-73
2021/11/17 09:44:59;;;;;;;;;;;;;;;;;;7297179;19;149818;-80
2021/11/17 09:47:26;;;;;;;;;;;;;;;;;;7296736;19;148985;-77
2021/11/17 09:49:51;;;;;;;;;;;;;;;;;;7296850;19;152759;-77
2021/11/17 09:52:16;;;;;;;;;;;;;;;;;;7296837;19;149772;-77
2021/11/17 09:54:41;;;;;;;;;;;;;;;;;;7297319;19;148898;-77
2021/11/17 09:57:06;;;;;;;;;;;;;;;;;;7297458;19;150866;-75
2021/11/17 09:59:32;;;;;;;;;;;;;;;;;;7295771;19;150603;-75
2021/11/17 10:01:57;;;;;;;;;;;;;;;;;;7303531;19;150261;-76
2021/11/17 10:04:22;;;;;;;;;;;;;;;;;;7294736;19;151920;-80
2021/11/17 10:14:40;;;;;;;;;;;;;;;;;;7296988;19;149363;-76
2021/11/17 10:17:05;;;;;;;;;;;;;;;;;;7295670;19;150639;-77
2021/11/17 10:19:31;;;;;;;;;;;;;;;;;;7294936;19;149917;-77
2021/11/17 10:21:56;;;;;;;;;;;;;;;;;;7304712;19;149024;-77
2021/11/17 10:24:21;;;;;;;;;;;;;;;;;;7295478;19;149900;-77
2021/11/17 10:26:47;;;;;;;;;;;;;;;;;;7296580;19;149300;-76
2021/11/17 10:29:12;;;;;;;;;;;;;;;;;;7297280;19;149995;-76
2021/11/17 10:31:37;;;;;;;;;;;;;;;;;;7295293;19;149564;-76
2021/11/17 10:34:02;;;;;;;;;;;;;;;;;;7297110;19;149068;-77
2021/11/17 10:36:27;;;;;;;;;;;;;;;;;;7296784;19;150023;-76
2021/11/17 10:38:53;;;;;;;;;;;;;;;;;;7295322;19;149352;-76
2021/11/17 10:41:18;;;;;;;;;;;;;;;;;;7294050;19;149103;-77
2021/11/17 10:43:43;;;;;;;;;;;;;;;;;;7303277;19;149203;-76
2021/11/17 10:46:08;;;;;;;;;;;;;;;;;;7296778;19;148826;-76
2021/11/17 10:48:33;;;;;;;;;;;;;;;;;;7296342;19;150958;-76
2021/11/17 10:51:07;;;;;;;;;5.60;5.60;;;;;;;;7292127;19;149400;-75
2021/11/17 10:53:34;;;;;;;;;2.00;2.00;;;;;;;;7290509;19;149245;-75
2021/11/17 10:56:05;;;;;;;;;5.25;4.75;;;;;;;;7290482;19;151098;-75
2021/11/17 10:58:32;;;;;;;;;6.50;5.00;;;;;;;;7289339;19;150644;-75
2021/11/17 11:01:13;;;;;;;;;5.75;5.00;;;;;;;;7289678;19;148803;-75
2021/11/17 11:03:41;;;;;;;;;7.75;7.75;;;;;;;;7292907;19;150092;-75
2021/11/17 11:06:09;;;;;;;;;7.25;5.00;;;;;;;;7298143;19;149724;-75
2021/11/17 11:08:37;;;;;;;;;6.00;6.00;;;;;;;;7291871;19;149342;-75
2021/11/17 11:11:04;;;;;;;;;12.50;11.75;;;;;;;;7290488;19;150364;-75
2021/11/17 11:13:33;;;;;;;;;14.00;13.00;;;;;;;;7289461;19;149201;-75
2021/11/17 11:16:01;;;;;;;;;7.50;7.50;;;;;;;;7291325;19;149495;-75
2021/11/17 11:18:46;;;;;;;;;12.50;10.50;;;;;;;;7290699;19;150568;-75
2021/11/17 11:21:13;;;;;;;;;8.00;8.00;;;;;;;;7288205;19;149210;-75
2021/11/17 11:23:58;;;;;;;;;8.25;8.00;;;;;;;;7291170;19;149598;-76
2021/11/17 11:26:25;;;;;;;;;9.00;7.00;;;;;;;;7289895;19;150499;-75
2021/11/17 11:28:59;;;;;;;;;10.00;6.75;;;;;;;;7298168;19;149224;-75
2021/11/17 11:31:35;;;;;;;;;4.50;4.50;;;;;;;;7290061;19;149291;-75
2021/11/17 11:34:01;;;;;;;;;7.00;7.00;;;;;;;;7290852;19;149107;-75
2021/11/17 11:36:31;;;;;;;;;8.00;7.00;;;;;;;;7291076;19;149987;-76
2021/11/17 11:38:56;;;;;;;;;7.00;6.00;;;;;;;;7289682;19;150058;-75
2021/11/17 11:41:33;;;;;;;;;6.25;6.00;;;;;;;;7288171;19;149111;-76
2021/11/17 11:44:20;;;;;;;;;6.00;6.00;;;;;;;;7290480;19;149973;-76
2021/11/17 11:46:47;;;;;;;;;7.25;6.00;;;;;;;;7289872;19;150450;-77
2021/11/17 11:49:24;;;;;;;;;6.50;6.50;;;;;;;;7290391;19;149169;-76
2021/11/17 11:52:04;;;;;;;;;6.00;5.00;;;;;;;;7296751;19;149511;-77
2021/11/17 11:54:32;;;;;;;;;5.50;5.50;;;;;;;;7290583;19;149087;-76
2021/11/17 11:57:00;;;;;;;;;8.25;8.25;;;;;;;;7290063;19;148976;-76
2021/11/17 11:59:27;;;;;;;;;9.50;7.00;;;;;;;;7286523;19;152571;-75
2021/11/17 12:02:13;;;;;;;;;5.50;5.50;;;;;;;;7290623;19;149275;-75
2021/11/17 12:04:43;;;;;;;;;10.00;7.00;;;;;;;;7289583;19;150269;-76
2021/11/17 12:07:11;;;;;;;;;6.50;5.00;;;;;;;;7295579;19;149456;-76
2021/11/17 12:09:50;;;;;;;;;4.50;3.00;;;;;;;;7297073;19;149113;-75
2021/11/17 12:12:18;;;;;;;;;2.50;2.50;;;;;;;;7296792;19;149298;-75
2021/11/17 12:14:47;;;;;;;;;7.50;5.00;;;;;;;;7303038;19;149151;-75
2021/11/17 12:17:17;;;;;;;;;7.00;6.00;;;;;;;;7296989;19;149419;-75
2021/11/17 12:19:51;;;;;;;;;6.00;6.00;;;;;;;;7294835;19;149268;-75
2021/11/17 12:22:18;;;;;;;;;5.25;5.25;;;;;;;;7295322;19;149079;-77
2021/11/17 12:24:46;;;;;;;;;3.75;2.50;;;;;;;;7295955;19;149765;-74
2021/11/17 12:27:11;;;;;;;;;5.50;3.00;;;;;;;;7293205;19;152649;-74
2021/11/17 12:29:36;;;;;;;;;3.00;3.00;;;;;;;;7296511;19;148889;-73
2021/11/17 12:32:05;;;;;;;;;9.00;5.00;;;;;;;;7295172;19;150113;-73
2021/11/17 12:34:37;;;;;;;;;5.00;3.00;;;;;;;;7302694;19;149358;-75
2021/11/17 12:37:02;;;;;;;;;6.50;6.00;;;;;;;;7296626;19;149532;-75
2021/11/17 12:39:31;;;;;;;;;6.25;5.25;;;;;;;;7294092;19;151208;-75
2021/11/17 12:42:02;;;;;;;;;4.50;4.50;;;;;;;;7296206;19;149282;-75
2021/11/17 12:44:39;;;;;;;;;6.00;6.00;;;;;;;;7292758;19;153128;-77
2021/11/17 12:47:10;;;;;;;;;6.00;5.50;;;;;;;;7294412;19;150015;-75
2021/11/17 12:49:36;;;;;;;;;8.00;6.00;;;;;;;;7294672;19;150929;-79
2021/11/17 12:52:16;;;;;;;;;9.00;7.50;;;;;;;;7294784;19;150787;-75
2021/11/17 12:54:50;;;;;;;;;7.50;7.00;;;;;;;;7293716;19;150191;-77
2021/11/17 12:57:23;;;;;;;;;8.50;7.75;;;;;;;;7302793;19;149217;-74
2021/11/17 12:59:50;;;;;;;;;6.00;6.00;;;;;;;;7293882;19;151549;-75
2021/11/17 13:02:21;;;;;;;;;5.00;5.00;;;;;;;;7296084;19;149018;-74
2021/11/17 13:04:47;;;;;;;;;4.50;4.50;;;;;;;;7295170;19;149221;-76
2021/11/17 13:07:29;;;;;;;;;7.00;7.00;;;;;;;;7294072;19;151556;-74
2021/11/17 13:09:56;;;;;;;;;8.00;5.00;;;;;;;;7294959;19;149044;-73
2021/11/17 13:12:30;;;;;;;;;11.00;10.00;;;;;;;;7293937;19;150713;-75
2021/11/17 13:15:04;;;;;;;;;8.75;8.00;;;;;;;;7293524;19;149604;-74
2021/11/17 13:17:32;;;;;;;;;5.50;5.50;;;;;;;;7294433;19;149850;-76
2021/11/17 13:20:18;;;;;;;;;6.50;6.50;;;;;;;;7299390;19;150576;-76
2021/11/17 13:22:43;;;;;;;;;6.00;5.00;;;;;;;;7296434;19;149022;-75
2021/11/17 13:25:23;;;;;;;;;7.50;7.50;;;;;;;;7296359;19;149577;-75
2021/11/17 13:27:54;;;;;;;;;10.00;8.00;;;;;;;;7295295;19;150651;-74
2021/11/17 13:30:25;;;;;;;;;4.75;4.75;;;;;;;;7296564;19;148875;-74
2021/11/17 13:32:51;;;;;;;;;7.00;7.00;;;;;;;;7295854;19;149882;-74
2021/11/17 13:35:33;;;;;;;;;8.50;7.00;;;;;;;;7294734;19;150641;-75
2021/11/17 13:38:08;;;;;;;;;8.75;7.00;;;;;;;;7295197;19;149136;-77
2021/11/17 13:40:33;;;;;;;;;7.00;5.00;;;;;;;;7293900;19;151070;-78
2021/11/17 13:42:58;;;;;;;;;7.50;7.00;;;;;;;;7301099;19;150264;-84
2021/11/17 13:45:27;;;;;;;;;8.00;7.25;;;;;;;;7294252;19;150611;-80
2021/11/17 13:47:52;;;;;;;;;8.25;7.50;;;;;;;;7294832;19;149359;-81
2021/11/17 13:50:19;;;;;;;;;7.75;7.00;;;;;;;;7298778;19;149207;-82
2021/11/17 13:52:46;;;;;;;;;10.00;8.50;;;;;;;;7295309;19;149450;-81
2021/11/17 13:55:13;;;;;;;;;7.50;7.50;;;;;;;;7294096;19;150092;-83
2021/11/17 13:57:40;;;;;;;;;7.50;7.00;;;;;;;;7294822;19;149969;-84
2021/11/17 14:00:07;;;;;;;;;10.50;9.50;;;;;;;;7293893;19;149293;-79
2021/11/17 14:02:33;;;;;;;;;12.00;10.00;;;;;;;;7293415;19;149574;-77
2021/11/17 14:04:58;;;;;;;;;9.00;8.25;;;;;;;;7300748;19;148847;-76
2021/11/17 14:07:25;;;;;;;;;7.25;7.00;;;;;;;;7291113;19;153182;-76
2021/11/17 14:09:57;;;;;;;;;8.50;8.50;;;;;;;;7293859;19;149005;-78
2021/11/17 14:12:22;;;;;;;;;12.75;10.25;;;;;;;;7293601;19;151346;-78
2021/11/17 14:14:47;;;;;;;;;9.25;9.25;;;;;;;;7293015;19;150147;-87
2021/11/17 14:17:13;;;;;;;;;12.00;8.00;;;;;;;;7294866;19;149560;-82
2021/11/17 14:19:38;;;;;;;;;9.75;8.00;;;;;;;;7294278;19;149317;-85
2021/11/17 14:22:03;;;;;;;;;10.25;8.75;;;;;;;;7293789;19;149671;-83
2021/11/17 14:24:29;;;;;;;;;10.50;10.50;;;;;;;;7299710;19;149077;-82
2021/11/17 14:26:54;;;;;;;;;9.00;9.00;;;;;;;;7293132;19;150319;-87
2021/11/17 14:29:23;;;;;;;;;6.00;6.00;;;;;;;;7293044;19;149819;-87
2021/11/17 14:31:50;;;;;;;;;8.75;8.25;;;;;;;;7293806;19;149569;-80
2021/11/17 14:34:16;;;;;;;;;7.50;7.50;;;;;;;;7293506;19;150355;-84
2021/11/17 14:36:47;;;;;;;;;7.75;7.25;;;;;;;;7293160;19;149342;-75
2021/11/17 14:39:13;;;;;;;;;11.25;8.00;;;;;;;;7296165;19;149080;-74
2021/11/17 14:41:38;;;;;;;;;7.50;7.50;;;;;;;;7296169;19;149569;-74
2021/11/17 14:44:04;;;;;;;;;6.50;6.50;;;;;;;;7297520;19;149021;-79
2021/11/17 14:46:30;;;;;;;;;8.50;7.75;;;;;;;;7299345;19;151046;-82
2021/11/17 14:48:55;;;;;;;;;5.25;5.25;;;;;;;;7291840;19;149056;-75
2021/11/17 14:51:20;;;;;;;;;7.00;4.50;;;;;;;;7291059;19;149963;-75
2021/11/17 14:53:47;;;;;;;;;8.25;5.00;;;;;;;;7288993;19;149916;-75
2021/11/17 14:56:13;;;;;;;;;9.50;8.50;;;;;;;;7290862;19;149265;-76
2021/11/17 14:58:38;;;;;;;;;11.00;8.50;;;;;;;;7290392;19;149661;-75
2021/11/17 15:01:06;;;;;;;;;9.25;8.00;;;;;;;;7287053;19;149419;-76
2021/11/17 15:03:31;;;;;;;;;8.50;7.75;;;;;;;;7290409;19;149586;-77
2021/11/17 15:05:56;;;;;;;;;7.50;7.00;;;;;;;;7291395;19;149408;-75
2021/11/17 15:08:22;;;;;;;;;12.75;8.00;;;;;;;;7298801;19;149347;-74
2021/11/17 15:10:47;;;;;;;;;7.75;7.75;;;;;;;;7291953;19;149170;-76
2021/11/17 15:13:13;;;;;;;;;8.50;8.50;;;;;;;;7291043;19;150490;-75
2021/11/17 15:15:40;;;;;;;;;9.00;9.00;;;;;;;;7292239;19;148949;-75
2021/11/17 15:18:06;;;;;;;;;11.25;11.00;;;;;;;;7289920;19;150332;-76
2021/11/17 15:20:31;;;;;;;;;9.75;9.00;;;;;;;;7290005;19;150470;-76
2021/11/17 15:22:56;;;;;;;;;16.50;10.25;;;;;;;;7291778;19;149327;-76
2021/11/17 15:25:24;;;;;;;;;16.00;12.50;;;;;;;;7291990;19;149064;-75
2021/11/17 15:27:51;;;;;;;;;14.25;11.00;;;;;;;;7290430;19;149445;-75
2021/11/17 15:30:22;;;;;;;;;8.00;8.00;;;;;;;;7299013;19;149078;-75
2021/11/17 15:32:47;;;;;;;;;13.00;9.25;;;;;;;;7290390;19;150569;-76
2021/11/17 15:35:13;;;;;;;;;10.75;10.00;;;;;;;;7291541;19;149062;-75
2021/11/17 15:37:38;;;;;;;;;8.25;8.25;;;;;;;;7291261;19;148834;-74
2021/11/17 15:40:09;;;;;;;;;10.00;8.00;;;;;;;;7290742;19;150366;-76
2021/11/17 15:42:34;;;;;;;;;8.25;8.25;;;;;;;;7297388;19;148957;-75
2021/11/17 15:44:59;;;;;;;;;7.50;7.00;;;;;;;;7298115;19;149523;-75
2021/11/17 15:47:26;;;;;;;;;8.00;7.50;;;;;;;;7296730;19;149564;-76
2021/11/17 15:49:52;;;;;;;;;5.25;5.25;;;;;;;;7298011;19;148890;-76
2021/11/17 15:52:17;;;;;;;;;9.75;7.00;;;;;;;;7304922;19;149722;-76
2021/11/17 15:54:42;;;;;;;;;3.00;2.25;;;;;;;;7297446;19;149468;-75
2021/11/17 15:57:08;;;;;;;;;8.75;7.75;;;;;;;;7297321;19;149270;-76
2021/11/17 15:59:33;;;;;;;;;15.75;14.50;;;;;;;;7296027;19;149677;-77
2021/11/17 16:01:59;;;;;;;;;10.00;10.00;;;;;;;;7294276;19;149223;-76
2021/11/17 16:04:24;;;;;;;;;13.00;12.00;;;;;;;;7297521;19;151202;-76
2021/11/17 16:06:55;;;;;;;;;8.50;7.00;;;;;;;;7296347;19;149556;-75
2021/11/17 16:09:21;;;;;;;;;13.00;9.50;;;;;;;;7297896;19;150505;-75
2021/11/17 16:11:47;;;;;;;;;12.50;9.00;;;;;;;;7297795;19;149661;-76
2021/11/17 16:14:12;;;;;;;;;12.25;12.25;;;;;;;;7303818;19;150136;-75
2021/11/17 16:16:38;;;;;;;;;12.50;9.75;;;;;;;;7295656;19;152767;-74
2021/11/17 16:19:04;;;;;;;;;7.50;7.00;;;;;;;;7295899;19;149197;-77
2021/11/17 16:21:30;;;;;;;;;14.25;12.00;;;;;;;;7294610;19;149070;-74
2021/11/17 16:26:41;;;;;;;;;20.25;19.00;;;;;;;;7295370;19;149568;-74
2021/11/17 16:29:09;;;;;;;;;11.25;11.25;;;;;;;;7295525;19;149067;-76
2021/11/17 16:31:35;;;;;;;;;8.25;7.25;;;;;;;;7295786;19;149286;-76
2021/11/17 16:34:00;;;;;;;;;15.00;11.50;;;;;;;;7302180;19;149696;-76
